createdAt,value
2023-02-23T00:00:32.308Z,100652.20
2023-02-23T00:03:04.687Z,100650.18
2023-02-23T00:05:36.217Z,100651.56
2023-02-23T00:08:05.615Z,100653.95
2023-02-23T00:10:34.721Z,100656.27
2023-02-23T00:13:05.241Z,100655.83
2023-02-23T00:15:39.180Z,100659.05
2023-02-23T00:18:09.589Z,100659.92
2023-02-23T00:20:44.451Z,100660.77
2023-02-23T00:23:12.977Z,100664.88
2023-02-23T00:25:45.928Z,100664.97
2023-02-23T00:28:15.521Z,100672.72
2023-02-23T00:30:46.939Z,100678.70
2023-02-23T00:33:17.122Z,100679.85
2023-02-23T00:35:45.951Z,100685.79
2023-02-23T00:38:16.060Z,100689.89
2023-02-23T00:40:46.262Z,100691.91
2023-02-23T00:43:15.519Z,100697.29
2023-02-23T00:45:44.064Z,100694.80
2023-02-23T00:48:12.618Z,100695.84
2023-02-23T00:50:42.123Z,100696.05
2023-02-23T00:53:11.668Z,100698.14
2023-02-23T00:55:41.615Z,100698.27
2023-02-23T00:58:14.340Z,100695.71
2023-02-23T01:00:43.827Z,100698.77
2023-02-23T01:03:12.370Z,100702.53
2023-02-23T01:05:41.853Z,100701.95
2023-02-23T01:08:11.222Z,100703.02
2023-02-23T01:10:42.015Z,100703.16
2023-02-23T01:13:13.494Z,100704.48
2023-02-23T01:15:44.772Z,100705.53
2023-02-23T01:18:16.440Z,100703.48
2023-02-23T01:20:45.500Z,100701.06
2023-02-23T01:23:15.018Z,100703.20
2023-02-23T01:25:44.909Z,100705.48
2023-02-23T01:28:13.740Z,100700.52
2023-02-23T01:30:43.164Z,100701.98
2023-02-23T01:33:13.957Z,100701.34
2023-02-23T01:35:43.953Z,100702.24
2023-02-23T01:38:16.007Z,100704.00
2023-02-23T01:40:44.781Z,100703.51
2023-02-23T01:43:21.564Z,100702.96
2023-02-23T01:45:50.258Z,100701.75
2023-02-23T01:48:22.969Z,100702.80
2023-02-23T01:50:53.027Z,100701.45
2023-02-23T01:53:21.869Z,100701.23
2023-02-23T01:55:51.336Z,100707.98
2023-02-23T01:58:29.688Z,100712.30
2023-02-23T02:01:02.052Z,100712.94
2023-02-23T02:03:39.867Z,100717.94
2023-02-23T02:06:14.209Z,100730.30
2023-02-23T02:08:46.817Z,100737.81
2023-02-23T02:11:31.076Z,100742.17
2023-02-23T02:14:02.821Z,100742.51
2023-02-23T02:17:06.577Z,100746.30
2023-02-23T02:20:06.487Z,100751.82
2023-02-23T02:23:16.788Z,100754.86
2023-02-23T02:26:29.642Z,100761.61
2023-02-23T02:29:28.942Z,100771.93
2023-02-23T02:32:24.427Z,100780.31
2023-02-23T02:35:15.250Z,100784.71
2023-02-23T02:38:07.497Z,100790.66
2023-02-23T02:40:59.333Z,100798.55
2023-02-23T02:43:40.984Z,100804.52
2023-02-23T02:46:18.028Z,100810.97
2023-02-23T02:49:01.792Z,100813.02
2023-02-23T02:51:36.819Z,100814.39
2023-02-23T02:54:26.853Z,100819.20
2023-02-23T02:56:57.895Z,100827.45
2023-02-23T02:59:46.336Z,100824.95
2023-02-23T03:02:38.554Z,100833.40
2023-02-23T03:05:36.511Z,100832.16
2023-02-23T03:08:42.308Z,100838.58
2023-02-23T03:11:31.017Z,100843.21
2023-02-23T03:14:30.458Z,100842.23
2023-02-23T03:17:43.589Z,100843.83
2023-02-23T03:20:53.817Z,100852.64
2023-02-23T03:23:48.222Z,100851.19
2023-02-23T03:26:42.936Z,100857.06
2023-02-23T03:29:41.239Z,100863.85
2023-02-23T03:32:44.843Z,100867.52
2023-02-23T03:35:38.029Z,100879.75
2023-02-23T03:38:35.160Z,100879.17
2023-02-23T03:41:23.169Z,100884.97
2023-02-23T03:44:22.708Z,100887.70
2023-02-23T03:47:10.032Z,100897.50
2023-02-23T03:49:57.449Z,100897.95
2023-02-23T03:52:55.496Z,100900.24
2023-02-23T03:55:45.874Z,100903.95
2023-02-23T03:58:36.270Z,100901.91
2023-02-23T04:01:24.440Z,100904.92
2023-02-23T04:04:11.663Z,100902.56
2023-02-23T04:07:01.314Z,100906.02
2023-02-23T04:09:49.453Z,100905.25
2023-02-23T04:12:41.306Z,100907.23
2023-02-23T04:15:24.336Z,100909.38
2023-02-23T04:17:53.107Z,100912.10
2023-02-23T04:20:21.323Z,100910.50
2023-02-23T04:22:51.891Z,100912.84
2023-02-23T04:25:22.981Z,100924.09
2023-02-23T04:27:51.265Z,100925.00
2023-02-23T04:30:20.794Z,100925.02
2023-02-23T04:32:51.961Z,100929.70
2023-02-23T04:35:20.683Z,100930.05
2023-02-23T04:37:49.059Z,100940.67
2023-02-23T04:40:18.306Z,100944.02
2023-02-23T04:42:47.042Z,100941.94
2023-02-23T04:45:16.001Z,100941.92
2023-02-23T04:47:45.079Z,100945.66
2023-02-23T04:50:13.765Z,100945.05
2023-02-23T04:52:43.081Z,100949.78
2023-02-23T04:55:20.154Z,100955.05
2023-02-23T04:57:49.075Z,100962.99
2023-02-23T05:00:18.489Z,100968.71
2023-02-23T05:02:49.555Z,100967.73
2023-02-23T05:05:19.042Z,100971.70
2023-02-23T05:07:49.018Z,100975.28
2023-02-23T05:10:19.472Z,100981.92
2023-02-23T05:12:48.319Z,100985.06
2023-02-23T05:15:16.891Z,100987.61
2023-02-23T05:17:45.612Z,100992.95
2023-02-23T05:20:19.077Z,100993.20
2023-02-23T05:22:47.872Z,100993.75
2023-02-23T05:25:16.915Z,100992.06
2023-02-23T05:27:45.893Z,100998.35
2023-02-23T05:30:14.672Z,100995.72
2023-02-23T05:32:43.438Z,100999.00
2023-02-23T05:35:13.174Z,100999.84
2023-02-23T05:37:41.697Z,101003.83
2023-02-23T05:40:11.269Z,101003.66
2023-02-23T05:42:41.282Z,101007.55
2023-02-23T05:45:09.923Z,101011.12
2023-02-23T05:47:39.079Z,101009.73
2023-02-23T05:50:11.596Z,101011.20
2023-02-23T05:52:41.831Z,101014.39
2023-02-23T05:55:12.704Z,101019.11
2023-02-23T05:57:42.934Z,101026.80
2023-02-23T06:00:13.663Z,101029.56
2023-02-23T06:02:42.797Z,101034.73
2023-02-23T06:05:13.167Z,101040.98
2023-02-23T06:07:41.819Z,101046.02
2023-02-23T06:10:12.527Z,101043.07
2023-02-23T06:12:43.263Z,101045.99
2023-02-23T06:15:11.573Z,101049.71
2023-02-23T06:17:42.111Z,101052.64
2023-02-23T06:20:11.642Z,101056.61
2023-02-23T06:22:40.383Z,101071.65
2023-02-23T06:25:13.018Z,101070.30
2023-02-23T06:27:42.511Z,101073.92
2023-02-23T06:30:12.320Z,101078.08
2023-02-23T06:32:40.804Z,101082.73
2023-02-23T06:35:11.816Z,101088.88
2023-02-23T06:37:46.005Z,101091.72
2023-02-23T06:40:14.497Z,101096.80
2023-02-23T06:42:44.633Z,101101.70
2023-02-23T06:45:14.134Z,101111.04
2023-02-23T06:47:43.621Z,101122.30
2023-02-23T06:50:14.889Z,101135.36
2023-02-23T06:52:44.030Z,101137.76
2023-02-23T06:55:13.412Z,101146.70
2023-02-23T06:57:42.838Z,101158.53
2023-02-23T07:00:15.310Z,101169.20
2023-02-23T07:02:45.147Z,101181.51
2023-02-23T07:05:13.726Z,101190.23
2023-02-23T07:07:45.615Z,101195.08
2023-02-23T07:10:14.865Z,101208.09
2023-02-23T07:12:43.332Z,101214.02
2023-02-23T07:15:12.205Z,101215.27
2023-02-23T07:17:40.873Z,101214.65
2023-02-23T07:20:13.211Z,101215.10
2023-02-23T07:22:42.586Z,101218.42
2023-02-23T07:25:11.457Z,101214.69
2023-02-23T07:27:42.540Z,101218.90
2023-02-23T07:30:11.867Z,101237.88
2023-02-23T07:32:42.136Z,101247.77
2023-02-23T07:35:10.970Z,101261.42
2023-02-23T07:37:39.568Z,101272.37
2023-02-23T07:40:09.456Z,101289.01
2023-02-23T07:42:38.326Z,101300.00
2023-02-23T07:45:08.544Z,101310.44
2023-02-23T07:47:38.245Z,101324.72
2023-02-23T07:50:14.043Z,101337.55
2023-02-23T07:52:42.996Z,101348.73
2023-02-23T07:55:11.851Z,101360.23
2023-02-23T07:57:41.088Z,101373.83
2023-02-23T08:00:10.962Z,101378.02
2023-02-23T08:02:43.439Z,101377.34
2023-02-23T08:05:12.278Z,101377.52
2023-02-23T08:07:42.461Z,101395.63
2023-02-23T08:10:12.067Z,101402.84
2023-02-23T08:12:42.641Z,101418.02
2023-02-23T08:15:11.188Z,101430.94
2023-02-23T08:17:40.948Z,101443.06
2023-02-23T08:20:11.485Z,101446.81
2023-02-23T08:22:49.401Z,101448.86
2023-02-23T08:25:18.642Z,101454.04
2023-02-23T08:27:52.225Z,101457.84
2023-02-23T08:30:21.842Z,101470.39
2023-02-23T08:32:53.687Z,101472.32
2023-02-23T08:35:23.197Z,101470.17
2023-02-23T08:37:51.932Z,101467.65
2023-02-23T08:40:21.900Z,101473.23
2023-02-23T08:42:52.457Z,101483.98
2023-02-23T08:45:21.157Z,101503.87
2023-02-23T08:47:50.004Z,101519.87
2023-02-23T08:50:18.986Z,101536.73
2023-02-23T08:52:48.340Z,101546.27
2023-02-23T08:55:21.984Z,101554.64
2023-02-23T08:57:50.779Z,101564.52
2023-02-23T09:00:20.450Z,101571.06
2023-02-23T09:02:50.089Z,101574.83
2023-02-23T09:05:19.038Z,101573.73
2023-02-23T09:07:49.382Z,101579.83
2023-02-23T09:10:20.276Z,101588.44
2023-02-23T09:12:51.631Z,101600.73
2023-02-23T09:15:21.906Z,101608.05
2023-02-23T09:17:50.658Z,101603.88
2023-02-23T09:20:20.986Z,101603.68
2023-02-23T09:22:49.976Z,101602.28
2023-02-23T09:25:23.571Z,101608.95
2023-02-23T09:27:53.520Z,101609.06
2023-02-23T09:30:22.610Z,101608.29
2023-02-23T09:32:53.010Z,101606.61
2023-02-23T09:35:23.130Z,101604.81
2023-02-23T09:37:55.889Z,101605.63
2023-02-23T09:40:29.482Z,101604.77
2023-02-23T09:43:01.240Z,101605.74
2023-02-23T09:45:40.193Z,101604.86
2023-02-23T09:48:09.676Z,101603.65
2023-02-23T09:50:39.190Z,101603.14
2023-02-23T09:53:24.157Z,101599.89
2023-02-23T09:55:54.149Z,101585.55
2023-02-23T09:58:27.746Z,101579.98
2023-02-23T10:01:15.292Z,101580.41
2023-02-23T10:04:18.991Z,101576.40
2023-02-23T10:07:07.621Z,101564.42
2023-02-23T10:10:00.328Z,101555.55
2023-02-23T10:12:47.878Z,101543.42
2023-02-23T10:15:28.340Z,101543.89
2023-02-23T10:18:04.340Z,101542.74
2023-02-23T10:20:45.721Z,101538.79
2023-02-23T10:23:17.389Z,101521.52
2023-02-23T10:25:47.796Z,101508.80
2023-02-23T10:28:22.300Z,101503.33
2023-02-23T10:30:51.605Z,101500.89
2023-02-23T10:33:23.912Z,101499.48
2023-02-23T10:36:07.372Z,101491.98
2023-02-23T10:38:40.190Z,101501.38
2023-02-23T10:41:09.400Z,101496.13
2023-02-23T10:43:39.720Z,101490.12
2023-02-23T10:46:08.848Z,101494.24
2023-02-23T10:48:43.406Z,101494.86
2023-02-23T10:51:40.499Z,101501.99
2023-02-23T10:54:58.394Z,101497.61
2023-02-23T10:57:30.510Z,101493.22
2023-02-23T11:00:00.562Z,101495.94
2023-02-23T11:02:33.764Z,101497.20
2023-02-23T11:05:03.455Z,101501.42
2023-02-23T11:07:33.971Z,101503.82
2023-02-23T11:10:26.239Z,101495.39
2023-02-23T11:12:57.373Z,101488.39
2023-02-23T11:15:49.892Z,101487.86
2023-02-23T11:18:23.231Z,101487.75
2023-02-23T11:20:52.711Z,101494.48
2023-02-23T11:23:31.915Z,101502.06
2023-02-23T11:26:06.437Z,101505.63
2023-02-23T11:28:37.130Z,101492.95
2023-02-23T11:31:20.010Z,101486.63
2023-02-23T11:33:49.068Z,101479.61
2023-02-23T11:36:29.894Z,101472.98
2023-02-23T11:39:06.586Z,101457.78
2023-02-23T11:41:35.543Z,101434.43
2023-02-23T11:44:06.228Z,101411.45
2023-02-23T11:46:37.364Z,101399.23
2023-02-23T11:49:07.434Z,101391.01
2023-02-23T11:51:38.689Z,101373.71
2023-02-23T11:54:10.486Z,101346.02
2023-02-23T11:56:39.069Z,101316.76
2023-02-23T11:59:08.611Z,101323.14
2023-02-23T12:01:45.757Z,101332.90
2023-02-23T12:04:31.663Z,101329.84
2023-02-23T12:07:19.478Z,101339.29
2023-02-23T12:09:49.796Z,101329.29
2023-02-23T12:12:20.794Z,101297.26
2023-02-23T12:15:02.956Z,101276.23
2023-02-23T12:17:36.906Z,101286.63
2023-02-23T12:20:18.329Z,101282.41
2023-02-23T12:22:49.766Z,101272.79
2023-02-23T12:25:28.389Z,101258.02
2023-02-23T12:28:20.833Z,101215.55
2023-02-23T12:31:12.388Z,101208.66
2023-02-23T12:33:49.101Z,101220.02
2023-02-23T12:36:21.392Z,101224.29
2023-02-23T12:39:00.905Z,101235.41
2023-02-23T12:41:56.212Z,101228.82
2023-02-23T12:44:30.719Z,101214.88
2023-02-23T12:47:03.778Z,101186.04
2023-02-23T12:49:44.790Z,101153.58
2023-02-23T12:52:17.290Z,101135.70
2023-02-23T12:54:47.215Z,101114.33
2023-02-23T12:57:40.217Z,101082.50
2023-02-23T13:00:31.282Z,101039.50
2023-02-23T13:03:37.860Z,101023.80
2023-02-23T13:06:30.871Z,101009.42
2023-02-23T13:09:11.951Z,100967.21
2023-02-23T13:11:54.031Z,100927.33
2023-02-23T13:14:35.429Z,100870.65
2023-02-23T13:17:10.113Z,100844.82
2023-02-23T13:19:45.102Z,100834.98
2023-02-23T13:22:40.943Z,100826.16
2023-02-23T13:25:24.845Z,100873.53
2023-02-23T13:27:56.802Z,100916.19
2023-02-23T13:30:25.707Z,100930.25
2023-02-23T13:32:54.593Z,100944.67
2023-02-23T13:35:23.367Z,100942.01
2023-02-23T13:38:14.518Z,100928.89
2023-02-23T13:41:00.009Z,100941.00
2023-02-23T13:43:33.967Z,100938.77
2023-02-23T13:46:25.529Z,100934.14
2023-02-23T13:49:02.063Z,100919.86
2023-02-23T13:51:49.998Z,100907.05
2023-02-23T13:54:20.011Z,100895.00
2023-02-23T13:56:49.616Z,100889.85
2023-02-23T13:59:35.037Z,100874.97
2023-02-23T14:02:31.045Z,100848.60
2023-02-23T14:05:26.884Z,100835.34
2023-02-23T14:08:05.451Z,100818.46
2023-02-23T14:10:38.820Z,100818.30
2023-02-23T14:13:13.850Z,100810.41
2023-02-23T14:16:09.577Z,100804.39
2023-02-23T14:19:05.935Z,100806.13
2023-02-23T14:21:46.813Z,100801.86
2023-02-23T14:24:19.674Z,100789.45
2023-02-23T14:27:04.946Z,100764.35
2023-02-23T14:29:42.125Z,100729.93
2023-02-23T14:32:10.919Z,100720.85
2023-02-23T14:34:45.560Z,100696.00
2023-02-23T14:37:18.480Z,100658.98
2023-02-23T14:39:49.715Z,100639.55
2023-02-23T14:42:26.387Z,100628.44
2023-02-23T14:44:56.138Z,100642.25
2023-02-23T14:47:27.122Z,100657.78
2023-02-23T14:49:59.868Z,100674.46
2023-02-23T14:52:40.896Z,100689.20
2023-02-23T14:55:12.430Z,100708.00
2023-02-23T14:57:43.708Z,100721.34
2023-02-23T15:00:25.309Z,100741.60
2023-02-23T15:03:01.271Z,100769.27
2023-02-23T15:05:32.379Z,100806.34
2023-02-23T15:08:03.857Z,100845.79
2023-02-23T15:10:35.829Z,100889.42
2023-02-23T15:13:12.146Z,100922.77
2023-02-23T15:15:45.658Z,100963.06
2023-02-23T15:18:39.408Z,100998.58
2023-02-23T15:21:26.500Z,101030.76
2023-02-23T15:24:13.201Z,101051.58
2023-02-23T15:26:43.892Z,101076.38
2023-02-23T15:29:18.322Z,101110.71
2023-02-23T15:31:53.060Z,101136.77
2023-02-23T15:34:26.792Z,101155.52
2023-02-23T15:37:01.498Z,101178.85
2023-02-23T15:39:48.068Z,101200.59
2023-02-23T15:42:20.032Z,101223.92
2023-02-23T15:45:00.908Z,101240.08
2023-02-23T15:47:36.500Z,101257.02
2023-02-23T15:50:18.117Z,101273.89
2023-02-23T15:52:50.816Z,101290.42
2023-02-23T15:55:32.222Z,101309.54
2023-02-23T15:58:22.465Z,101323.34
2023-02-23T16:01:13.330Z,101343.39
2023-02-23T16:03:55.480Z,101356.40
2023-02-23T16:06:34.434Z,101372.13
2023-02-23T16:09:24.481Z,101384.21
2023-02-23T16:12:05.564Z,101401.31
2023-02-23T16:14:54.109Z,101413.83
2023-02-23T16:17:30.603Z,101424.13
2023-02-23T16:20:23.614Z,101433.60
2023-02-23T16:22:55.164Z,101444.84
2023-02-23T16:25:26.101Z,101453.16
2023-02-23T16:28:04.035Z,101463.13
2023-02-23T16:30:45.058Z,101469.73
2023-02-23T16:33:26.128Z,101477.34
2023-02-23T16:36:13.255Z,101487.48
2023-02-23T16:38:46.493Z,101492.05
2023-02-23T16:41:20.230Z,101500.68
2023-02-23T16:43:49.992Z,101513.64
2023-02-23T16:46:19.658Z,101520.98
2023-02-23T16:48:49.078Z,101526.41
2023-02-23T16:51:20.464Z,101533.58
2023-02-23T16:53:51.377Z,101536.50
2023-02-23T16:56:22.034Z,101538.38
2023-02-23T16:58:55.852Z,101540.39
2023-02-23T17:01:26.497Z,101549.38
2023-02-23T17:03:54.787Z,101550.58
2023-02-23T17:06:24.011Z,101555.89
2023-02-23T17:08:58.245Z,101557.55
2023-02-23T17:11:27.653Z,101558.61
2023-02-23T17:13:56.822Z,101561.19
2023-02-23T17:16:25.872Z,101564.31
2023-02-23T17:18:59.880Z,101564.48
2023-02-23T17:21:34.132Z,101570.21
2023-02-23T17:24:04.027Z,101569.62
2023-02-23T17:26:33.526Z,101576.38
2023-02-23T17:29:02.300Z,101584.67
2023-02-23T17:31:32.382Z,101585.34
2023-02-23T17:34:01.186Z,101588.84
2023-02-23T17:36:30.189Z,101593.10
2023-02-23T17:39:03.504Z,101596.83
2023-02-23T17:41:34.709Z,101601.11
2023-02-23T17:44:06.280Z,101604.27
2023-02-23T17:46:36.332Z,101607.00
2023-02-23T17:49:05.023Z,101605.65
2023-02-23T17:51:36.102Z,101607.07
2023-02-23T17:54:05.000Z,101610.44
2023-02-23T17:56:34.871Z,101611.27
2023-02-23T17:59:04.479Z,101614.31
2023-02-23T18:01:34.764Z,101612.56
2023-02-23T18:04:04.296Z,101618.67
2023-02-23T18:06:37.290Z,101615.92
2023-02-23T18:09:06.683Z,101618.88
2023-02-23T18:11:36.253Z,101617.24
2023-02-23T18:14:05.026Z,101620.87
2023-02-23T18:16:35.523Z,101621.72
2023-02-23T18:19:06.917Z,101619.45
2023-02-23T18:21:41.043Z,101615.27
2023-02-23T18:24:10.237Z,101617.27
2023-02-23T18:26:39.921Z,101616.45
2023-02-23T18:29:09.218Z,101612.54
2023-02-23T18:31:39.530Z,101610.69
2023-02-23T18:34:10.156Z,101612.51
2023-02-23T18:36:39.122Z,101612.30
2023-02-23T18:39:09.001Z,101610.40
2023-02-23T18:41:37.859Z,101610.44
2023-02-23T18:44:08.808Z,101611.55
2023-02-23T18:46:38.031Z,101605.69
2023-02-23T18:49:07.487Z,101602.61
2023-02-23T18:51:36.685Z,101601.96
2023-02-23T18:54:11.227Z,101607.23
2023-02-23T18:56:40.806Z,101616.77
2023-02-23T18:59:10.492Z,101616.86
2023-02-23T19:01:39.602Z,101623.64
2023-02-23T19:04:09.088Z,101625.30
2023-02-23T19:06:39.542Z,101631.55
2023-02-23T19:09:14.750Z,101630.77
2023-02-23T19:11:45.106Z,101633.23
2023-02-23T19:14:18.651Z,101630.75
2023-02-23T19:16:47.444Z,101631.02
2023-02-23T19:19:18.725Z,101636.80
2023-02-23T19:21:53.814Z,101645.09
2023-02-23T19:24:22.526Z,101641.16
2023-02-23T19:26:51.353Z,101643.79
2023-02-23T19:29:20.253Z,101642.65
2023-02-23T19:31:49.906Z,101644.69
2023-02-23T19:34:19.345Z,101646.88
2023-02-23T19:36:48.295Z,101642.34
2023-02-23T19:39:20.464Z,101638.75
2023-02-23T19:41:49.710Z,101630.92
2023-02-23T19:44:18.459Z,101632.86
2023-02-23T19:46:47.599Z,101623.94
2023-02-23T19:49:16.802Z,101619.48
2023-02-23T19:51:45.443Z,101613.95
2023-02-23T19:54:14.091Z,101603.14
2023-02-23T19:56:43.637Z,101602.88
2023-02-23T19:59:12.953Z,101593.38
2023-02-23T20:01:43.715Z,101580.34
2023-02-23T20:04:12.901Z,101577.54
2023-02-23T20:06:47.404Z,101557.06
2023-02-23T20:09:16.778Z,101547.53
2023-02-23T20:11:49.891Z,101544.46
2023-02-23T20:14:18.867Z,101534.80
2023-02-23T20:16:49.089Z,101531.66
2023-02-23T20:19:19.855Z,101527.92
2023-02-23T20:21:50.194Z,101520.45
2023-02-23T20:24:25.766Z,101511.21
2023-02-23T20:26:57.047Z,101508.89
2023-02-23T20:29:28.441Z,101506.77
2023-02-23T20:32:00.068Z,101508.34
2023-02-23T20:34:29.501Z,101501.71
2023-02-23T20:36:58.044Z,101498.76
2023-02-23T20:39:27.498Z,101498.84
2023-02-23T20:41:57.850Z,101504.41
2023-02-23T20:44:28.463Z,101506.64
2023-02-23T20:46:58.209Z,101495.20
2023-02-23T20:49:28.008Z,101487.23
2023-02-23T20:51:58.244Z,101485.74
2023-02-23T20:54:27.892Z,101477.86
2023-02-23T20:57:07.662Z,101481.60
2023-02-23T20:59:37.518Z,101482.95
2023-02-23T21:02:06.727Z,101487.21
2023-02-23T21:04:38.650Z,101481.38
2023-02-23T21:07:07.413Z,101476.37
2023-02-23T21:09:42.605Z,101478.02
2023-02-23T21:12:11.325Z,101467.73
2023-02-23T21:14:40.029Z,101469.30
2023-02-23T21:17:09.844Z,101471.75
2023-02-23T21:19:39.179Z,101466.62
2023-02-23T21:22:08.130Z,101459.23
2023-02-23T21:24:41.214Z,101463.85
2023-02-23T21:27:13.924Z,101460.42
2023-02-23T21:29:43.091Z,101465.89
2023-02-23T21:32:14.066Z,101473.80
2023-02-23T21:34:43.893Z,101470.30
2023-02-23T21:37:12.982Z,101466.63
2023-02-23T21:39:42.120Z,101451.11
2023-02-23T21:42:12.464Z,101443.02
2023-02-23T21:44:44.769Z,101434.58
2023-02-23T21:47:14.987Z,101427.98
2023-02-23T21:49:49.486Z,101420.80
2023-02-23T21:52:18.703Z,101415.65
2023-02-23T21:54:51.742Z,101411.69
2023-02-23T21:57:22.994Z,101416.29
2023-02-23T21:59:51.683Z,101407.60
2023-02-23T22:02:20.386Z,101399.02
2023-02-23T22:04:51.133Z,101401.39
2023-02-23T22:07:19.194Z,101400.39
2023-02-23T22:09:48.921Z,101397.65
2023-02-23T22:12:17.657Z,101386.80
2023-02-23T22:14:55.710Z,101386.54
2023-02-23T22:17:24.105Z,101386.73
2023-02-23T22:19:54.815Z,101383.66
2023-02-23T22:22:23.689Z,101379.73
2023-02-23T22:24:51.783Z,101375.21
2023-02-23T22:27:20.259Z,101371.50
2023-02-23T22:29:49.275Z,101368.13
2023-02-23T22:32:18.147Z,101363.80
2023-02-23T22:34:47.265Z,101363.89
2023-02-23T22:37:16.789Z,101359.06
2023-02-23T22:39:45.396Z,101352.69
2023-02-23T22:42:14.441Z,101354.67
2023-02-23T22:44:44.313Z,101346.26
2023-02-23T22:47:13.845Z,101344.34
2023-02-23T22:49:42.948Z,101336.33
2023-02-23T22:52:11.439Z,101337.05
2023-02-23T22:54:40.266Z,101321.21
2023-02-23T22:57:09.267Z,101314.75
2023-02-23T22:59:38.034Z,101312.05
2023-02-23T23:02:07.078Z,101313.10
2023-02-23T23:04:36.829Z,101312.38
2023-02-23T23:07:06.415Z,101314.71
2023-02-23T23:09:39.646Z,101313.69
2023-02-23T23:12:08.895Z,101300.27
2023-02-23T23:14:41.995Z,101298.69
2023-02-23T23:17:12.310Z,101283.48
2023-02-23T23:19:41.427Z,101279.43
2023-02-23T23:22:13.864Z,101275.42
2023-02-23T23:24:46.397Z,101260.80
2023-02-23T23:27:15.383Z,101252.15
2023-02-23T23:29:46.675Z,101252.28
2023-02-23T23:32:17.790Z,101254.80
2023-02-23T23:34:48.345Z,101247.36
2023-02-23T23:37:17.752Z,101245.26
2023-02-23T23:39:46.340Z,101235.80
2023-02-23T23:42:15.811Z,101222.73
2023-02-23T23:44:45.442Z,101227.17
2023-02-23T23:47:15.356Z,101221.19
2023-02-23T23:49:44.149Z,101213.10
2023-02-23T23:52:18.015Z,101204.39
2023-02-23T23:54:47.378Z,101203.21
2023-02-23T23:57:15.807Z,101193.88
2023-02-23T23:59:46.468Z,101194.14
